sensor_id;sensor_type;location;lat;lon;timestamp;pressure;altitude;pressure_sealevel;temperature;humidity
26859;BME280;14429;48.346;16.338;2023-07-09T00:00:50;100104.03;;;28.30;40.04
26859;BME280;14429;48.346;16.338;2023-07-09T00:03:16;100100.69;;;28.28;40.25
26859;BME280;14429;48.346;16.338;2023-07-09T00:05:42;100100.47;;;28.23;40.23
26859;BME280;14429;48.346;16.338;2023-07-09T00:08:16;100101.75;;;28.27;40.31
26859;BME280;14429;48.346;16.338;2023-07-09T00:10:48;100096.44;;;28.25;40.43
26859;BME280;14429;48.346;16.338;2023-07-09T00:13:13;100107.41;;;28.25;40.41
26859;BME280;14429;48.346;16.338;2023-07-09T00:15:39;100099.59;;;28.22;40.46
26859;BME280;14429;48.346;16.338;2023-07-09T00:18:04;100097.91;;;28.21;40.30
26859;BME280;14429;48.346;16.338;2023-07-09T00:20:30;100097.69;;;28.17;40.35
26859;BME280;14429;48.346;16.338;2023-07-09T00:22:55;100112.47;;;28.22;40.34
26859;BME280;14429;48.346;16.338;2023-07-09T00:25:21;100108.69;;;28.23;40.36
26859;BME280;14429;48.346;16.338;2023-07-09T00:27:47;100118.19;;;28.20;40.23
26859;BME280;14429;48.346;16.338;2023-07-09T00:30:16;100109.97;;;28.27;40.42
26859;BME280;14429;48.346;16.338;2023-07-09T00:32:41;100123.91;;;28.32;40.04
26859;BME280;14429;48.346;16.338;2023-07-09T00:35:08;100121.78;;;28.34;40.16
26859;BME280;14429;48.346;16.338;2023-07-09T00:37:33;100120.09;;;28.33;40.00
26859;BME280;14429;48.346;16.338;2023-07-09T00:39:59;100115.69;;;28.32;40.26
26859;BME280;14429;48.346;16.338;2023-07-09T00:42:24;100127.72;;;28.31;40.18
26859;BME280;14429;48.346;16.338;2023-07-09T00:44:52;100126.00;;;28.30;40.14
26859;BME280;14429;48.346;16.338;2023-07-09T00:47:28;100124.31;;;28.29;40.30
26859;BME280;14429;48.346;16.338;2023-07-09T00:50:03;100131.50;;;28.30;40.14
26859;BME280;14429;48.346;16.338;2023-07-09T00:52:35;100141.84;;;28.28;40.05
26859;BME280;14429;48.346;16.338;2023-07-09T00:55:06;100135.09;;;28.24;40.17
26859;BME280;14429;48.346;16.338;2023-07-09T00:57:34;100132.34;;;28.24;40.19
26859;BME280;14429;48.346;16.338;2023-07-09T01:00:05;100139.72;;;28.23;40.43
26859;BME280;14429;48.346;16.338;2023-07-09T01:02:30;100139.53;;;28.25;40.01
26859;BME280;14429;48.346;16.338;2023-07-09T01:04:59;100138.69;;;28.24;39.86
26859;BME280;14429;48.346;16.338;2023-07-09T01:07:26;100136.16;;;28.23;40.16
26859;BME280;14429;48.346;16.338;2023-07-09T01:09:52;100139.91;;;28.22;40.04
26859;BME280;14429;48.346;16.338;2023-07-09T01:12:19;100142.47;;;28.23;40.04
26859;BME280;14429;48.346;16.338;2023-07-09T01:14:45;100139.28;;;28.20;40.32
26859;BME280;14429;48.346;16.338;2023-07-09T01:17:12;100136.97;;;28.17;40.09
26859;BME280;14429;48.346;16.338;2023-07-09T01:19:40;100130.41;;;28.12;40.36
26859;BME280;14429;48.346;16.338;2023-07-09T01:22:07;100133.56;;;28.09;40.17
26859;BME280;14429;48.346;16.338;2023-07-09T01:24:57;100134.00;;;28.12;40.43
26859;BME280;14429;48.346;16.338;2023-07-09T01:27:25;100138.19;;;28.08;40.22
26859;BME280;14429;48.346;16.338;2023-07-09T01:29:50;100131.84;;;28.08;40.37
26859;BME280;14429;48.346;16.338;2023-07-09T01:32:16;100141.13;;;28.07;40.34
26859;BME280;14429;48.346;16.338;2023-07-09T01:34:42;100142.75;;;27.95;40.51
26859;BME280;14429;48.346;16.338;2023-07-09T01:37:09;100155.88;;;26.91;39.70
26859;BME280;14429;48.346;16.338;2023-07-09T01:39:34;100151.34;;;26.28;41.15
26859;BME280;14429;48.346;16.338;2023-07-09T01:42:00;100150.06;;;27.01;42.38
26859;BME280;14429;48.346;16.338;2023-07-09T01:44:25;100146.13;;;27.30;42.15
26859;BME280;14429;48.346;16.338;2023-07-09T01:46:51;100148.31;;;27.41;41.55
26859;BME280;14429;48.346;16.338;2023-07-09T01:49:16;100143.72;;;27.48;41.69
26859;BME280;14429;48.346;16.338;2023-07-09T01:51:41;100151.75;;;27.49;41.68
26859;BME280;14429;48.346;16.338;2023-07-09T01:54:08;100152.47;;;27.64;41.56
26859;BME280;14429;48.346;16.338;2023-07-09T01:56:34;100152.13;;;26.99;39.88
26859;BME280;14429;48.346;16.338;2023-07-09T01:58:59;100150.91;;;27.49;41.74
26859;BME280;14429;48.346;16.338;2023-07-09T02:01:25;100154.81;;;27.67;41.30
26859;BME280;14429;48.346;16.338;2023-07-09T02:03:50;100151.03;;;27.68;41.36
26859;BME280;14429;48.346;16.338;2023-07-09T02:06:15;100143.06;;;27.79;40.93
26859;BME280;14429;48.346;16.338;2023-07-09T02:08:41;100151.53;;;27.84;40.66
26859;BME280;14429;48.346;16.338;2023-07-09T02:11:08;100156.56;;;27.81;40.94
26859;BME280;14429;48.346;16.338;2023-07-09T02:13:33;100155.06;;;27.72;40.91
26859;BME280;14429;48.346;16.338;2023-07-09T02:15:58;100145.78;;;27.73;41.00
26859;BME280;14429;48.346;16.338;2023-07-09T02:18:24;100156.56;;;27.74;41.03
26859;BME280;14429;48.346;16.338;2023-07-09T02:20:49;100151.50;;;27.78;40.95
26859;BME280;14429;48.346;16.338;2023-07-09T02:23:15;100150.03;;;27.82;40.85
26859;BME280;14429;48.346;16.338;2023-07-09T02:25:40;100158.16;;;27.90;40.86
26859;BME280;14429;48.346;16.338;2023-07-09T02:28:07;100162.59;;;27.90;40.82
26859;BME280;14429;48.346;16.338;2023-07-09T02:30:32;100163.66;;;27.90;40.85
26859;BME280;14429;48.346;16.338;2023-07-09T02:32:58;100158.16;;;27.90;40.45
26859;BME280;14429;48.346;16.338;2023-07-09T02:35:23;100167.81;;;27.86;40.53
26859;BME280;14429;48.346;16.338;2023-07-09T02:37:49;100166.66;;;27.74;40.85
26859;BME280;14429;48.346;16.338;2023-07-09T02:40:15;100163.50;;;27.43;41.61
26859;BME280;14429;48.346;16.338;2023-07-09T02:42:40;100171.84;;;27.56;41.11
26859;BME280;14429;48.346;16.338;2023-07-09T02:45:09;100169.66;;;27.52;41.50
26859;BME280;14429;48.346;16.338;2023-07-09T02:47:34;100167.44;;;27.62;41.03
26859;BME280;14429;48.346;16.338;2023-07-09T02:50:00;100171.13;;;27.75;40.72
26859;BME280;14429;48.346;16.338;2023-07-09T02:52:25;100169.00;;;27.77;40.71
26859;BME280;14429;48.346;16.338;2023-07-09T02:54:51;100175.16;;;27.79;41.02
26859;BME280;14429;48.346;16.338;2023-07-09T02:57:16;100177.94;;;27.58;41.24
26859;BME280;14429;48.346;16.338;2023-07-09T02:59:42;100178.63;;;27.60;41.10
26859;BME280;14429;48.346;16.338;2023-07-09T03:02:09;100184.78;;;27.68;41.18
26859;BME280;14429;48.346;16.338;2023-07-09T03:04:35;100179.75;;;27.72;40.87
26859;BME280;14429;48.346;16.338;2023-07-09T03:07:01;100175.16;;;27.79;40.92
26859;BME280;14429;48.346;16.338;2023-07-09T03:09:26;100185.47;;;27.77;40.81
26859;BME280;14429;48.346;16.338;2023-07-09T03:11:52;100179.34;;;27.75;40.84
26859;BME280;14429;48.346;16.338;2023-07-09T03:14:17;100189.81;;;27.65;41.04
26859;BME280;14429;48.346;16.338;2023-07-09T03:16:43;100183.28;;;27.66;41.06
26859;BME280;14429;48.346;16.338;2023-07-09T03:19:10;100184.56;;;27.70;41.00
26859;BME280;14429;48.346;16.338;2023-07-09T03:21:35;100185.50;;;27.50;39.88
26859;BME280;14429;48.346;16.338;2023-07-09T03:24:01;100188.53;;;27.61;41.19
26859;BME280;14429;48.346;16.338;2023-07-09T03:26:26;100194.91;;;27.68;40.98
26859;BME280;14429;48.346;16.338;2023-07-09T03:28:52;100196.19;;;27.72;40.66
26859;BME280;14429;48.346;16.338;2023-07-09T03:31:17;100192.00;;;27.76;40.70
26859;BME280;14429;48.346;16.338;2023-07-09T03:33:43;100186.03;;;27.66;41.14
26859;BME280;14429;48.346;16.338;2023-07-09T03:36:10;100189.44;;;27.68;41.14
26859;BME280;14429;48.346;16.338;2023-07-09T03:38:35;100180.59;;;27.72;40.76
26859;BME280;14429;48.346;16.338;2023-07-09T03:41:01;100190.31;;;27.75;40.54
26859;BME280;14429;48.346;16.338;2023-07-09T03:43:26;100186.13;;;27.79;40.60
26859;BME280;14429;48.346;16.338;2023-07-09T03:45:52;100186.47;;;27.69;40.88
26859;BME280;14429;48.346;16.338;2023-07-09T03:48:18;100185.63;;;27.69;40.89
26859;BME280;14429;48.346;16.338;2023-07-09T03:50:45;100184.19;;;27.73;40.78
26859;BME280;14429;48.346;16.338;2023-07-09T03:53:13;100187.56;;;27.75;40.84
26859;BME280;14429;48.346;16.338;2023-07-09T03:55:39;100197.03;;;27.72;40.66
26859;BME280;14429;48.346;16.338;2023-07-09T03:58:06;100185.19;;;27.65;40.97
26859;BME280;14429;48.346;16.338;2023-07-09T04:00:32;100182.25;;;27.40;40.94
26859;BME280;14429;48.346;16.338;2023-07-09T04:02:57;100193.34;;;27.32;41.48
26859;BME280;14429;48.346;16.338;2023-07-09T04:05:23;100193.75;;;27.29;41.25
26859;BME280;14429;48.346;16.338;2023-07-09T04:07:49;100199.63;;;27.26;41.63
26859;BME280;14429;48.346;16.338;2023-07-09T04:10:16;100197.66;;;27.41;41.29
26859;BME280;14429;48.346;16.338;2023-07-09T04:12:42;100200.09;;;27.30;41.50
26859;BME280;14429;48.346;16.338;2023-07-09T04:15:08;100198.91;;;27.38;41.60
26859;BME280;14429;48.346;16.338;2023-07-09T04:17:34;100206.22;;;27.32;41.60
26859;BME280;14429;48.346;16.338;2023-07-09T04:19:59;100213.00;;;27.35;41.44
26859;BME280;14429;48.346;16.338;2023-07-09T04:22:25;100209.56;;;27.54;41.20
26859;BME280;14429;48.346;16.338;2023-07-09T04:24:50;100198.66;;;27.61;40.97
26859;BME280;14429;48.346;16.338;2023-07-09T04:27:17;100204.97;;;27.61;41.00
26859;BME280;14429;48.346;16.338;2023-07-09T04:29:43;100209.22;;;27.63;40.90
26859;BME280;14429;48.346;16.338;2023-07-09T04:32:12;100213.13;;;27.28;40.93
26859;BME280;14429;48.346;16.338;2023-07-09T04:34:38;100214.97;;;27.41;41.00
26859;BME280;14429;48.346;16.338;2023-07-09T04:37:04;100214.31;;;27.19;41.85
26859;BME280;14429;48.346;16.338;2023-07-09T04:39:29;100215.50;;;27.58;41.11
26859;BME280;14429;48.346;16.338;2023-07-09T04:41:55;100219.59;;;27.68;40.93
26859;BME280;14429;48.346;16.338;2023-07-09T04:44:21;100221.53;;;27.74;40.50
26859;BME280;14429;48.346;16.338;2023-07-09T04:46:47;100228.06;;;28.00;39.90
26859;BME280;14429;48.346;16.338;2023-07-09T04:49:12;100233.88;;;28.17;39.56
26859;BME280;14429;48.346;16.338;2023-07-09T04:51:38;100238.38;;;28.31;39.10
26859;BME280;14429;48.346;16.338;2023-07-09T04:54:03;100232.97;;;28.44;39.00
26859;BME280;14429;48.346;16.338;2023-07-09T04:56:29;100236.81;;;28.49;38.74
26859;BME280;14429;48.346;16.338;2023-07-09T04:58:54;100233.03;;;28.63;38.57
26859;BME280;14429;48.346;16.338;2023-07-09T05:01:21;100236.13;;;28.94;38.14
26859;BME280;14429;48.346;16.338;2023-07-09T05:03:46;100226.59;;;28.96;38.60
26859;BME280;14429;48.346;16.338;2023-07-09T05:06:12;100233.16;;;28.95;38.45
26859;BME280;14429;48.346;16.338;2023-07-09T05:08:37;100234.47;;;29.05;37.72
26859;BME280;14429;48.346;16.338;2023-07-09T05:11:03;100240.00;;;29.18;37.48
26859;BME280;14429;48.346;16.338;2023-07-09T05:13:28;100234.47;;;29.12;37.37
26859;BME280;14429;48.346;16.338;2023-07-09T05:15:53;100236.41;;;29.24;37.25
26859;BME280;14429;48.346;16.338;2023-07-09T05:18:20;100229.84;;;29.19;37.75
26859;BME280;14429;48.346;16.338;2023-07-09T05:20:46;100231.34;;;29.27;37.54
26859;BME280;14429;48.346;16.338;2023-07-09T05:23:12;100235.56;;;29.30;37.36
26859;BME280;14429;48.346;16.338;2023-07-09T05:25:38;100237.53;;;29.61;36.61
26859;BME280;14429;48.346;16.338;2023-07-09T05:28:04;100232.00;;;29.61;36.72
26859;BME280;14429;48.346;16.338;2023-07-09T05:30:30;100231.56;;;29.77;37.08
26859;BME280;14429;48.346;16.338;2023-07-09T05:32:55;100236.25;;;29.83;37.27
26859;BME280;14429;48.346;16.338;2023-07-09T05:35:22;100233.69;;;29.94;36.22
26859;BME280;14429;48.346;16.338;2023-07-09T05:37:47;100239.59;;;29.85;36.38
26859;BME280;14429;48.346;16.338;2023-07-09T05:40:13;100244.03;;;29.92;36.40
26859;BME280;14429;48.346;16.338;2023-07-09T05:42:38;100252.50;;;29.46;36.98
26859;BME280;14429;48.346;16.338;2023-07-09T05:45:04;100252.28;;;29.41;37.44
26859;BME280;14429;48.346;16.338;2023-07-09T05:47:30;100248.66;;;29.34;37.43
26859;BME280;14429;48.346;16.338;2023-07-09T05:49:55;100245.53;;;29.50;36.88
26859;BME280;14429;48.346;16.338;2023-07-09T05:52:23;100237.88;;;29.97;36.70
26859;BME280;14429;48.346;16.338;2023-07-09T05:54:49;100251.44;;;30.11;36.24
26859;BME280;14429;48.346;16.338;2023-07-09T05:57:15;100256.13;;;30.10;36.11
26859;BME280;14429;48.346;16.338;2023-07-09T05:59:41;100254.84;;;29.87;36.53
26859;BME280;14429;48.346;16.338;2023-07-09T06:02:10;100259.94;;;29.71;36.44
26859;BME280;14429;48.346;16.338;2023-07-09T06:04:36;100249.75;;;29.97;35.99
26859;BME280;14429;48.346;16.338;2023-07-09T06:07:01;100251.41;;;30.05;35.89
26859;BME280;14429;48.346;16.338;2023-07-09T06:09:28;100252.25;;;30.05;36.19
26859;BME280;14429;48.346;16.338;2023-07-09T06:11:53;100250.63;;;29.72;36.37
26859;BME280;14429;48.346;16.338;2023-07-09T06:14:19;100249.75;;;30.04;36.41
26859;BME280;14429;48.346;16.338;2023-07-09T06:16:44;100248.88;;;30.09;35.96
26859;BME280;14429;48.346;16.338;2023-07-09T06:19:10;100246.78;;;29.99;36.33
26859;BME280;14429;48.346;16.338;2023-07-09T06:21:35;100243.19;;;29.85;36.31
26859;BME280;14429;48.346;16.338;2023-07-09T06:24:01;100262.91;;;29.70;36.51
26859;BME280;14429;48.346;16.338;2023-07-09T06:26:28;100253.56;;;29.90;36.24
26859;BME280;14429;48.346;16.338;2023-07-09T06:28:53;100256.09;;;30.17;36.08
26859;BME280;14429;48.346;16.338;2023-07-09T06:31:19;100257.34;;;30.08;36.19
26859;BME280;14429;48.346;16.338;2023-07-09T06:33:44;100254.69;;;30.64;34.83
26859;BME280;14429;48.346;16.338;2023-07-09T06:36:10;100267.06;;;30.36;35.79
26859;BME280;14429;48.346;16.338;2023-07-09T06:38:35;100261.69;;;30.66;35.01
26859;BME280;14429;48.346;16.338;2023-07-09T06:41:00;100257.00;;;30.61;35.29
26859;BME280;14429;48.346;16.338;2023-07-09T06:43:27;100262.75;;;30.53;35.17
26859;BME280;14429;48.346;16.338;2023-07-09T06:45:54;100261.06;;;30.52;36.48
26859;BME280;14429;48.346;16.338;2023-07-09T06:48:20;100262.28;;;30.68;35.09
26859;BME280;14429;48.346;16.338;2023-07-09T06:50:45;100269.84;;;30.23;35.81
26859;BME280;14429;48.346;16.338;2023-07-09T06:53:11;100267.44;;;30.46;36.33
26859;BME280;14429;48.346;16.338;2023-07-09T06:55:37;100254.69;;;30.58;35.17
26859;BME280;14429;48.346;16.338;2023-07-09T06:58:02;100267.72;;;29.49;36.96
26859;BME280;14429;48.346;16.338;2023-07-09T07:00:29;100263.28;;;29.35;37.44
26859;BME280;14429;48.346;16.338;2023-07-09T07:02:54;100265.84;;;29.55;37.27
26859;BME280;14429;48.346;16.338;2023-07-09T07:05:20;100267.75;;;30.12;36.35
26859;BME280;14429;48.346;16.338;2023-07-09T07:07:45;100262.81;;;30.34;36.37
26859;BME280;14429;48.346;16.338;2023-07-09T07:10:11;100263.47;;;30.91;35.36
26859;BME280;14429;48.346;16.338;2023-07-09T07:12:42;100267.03;;;31.35;35.00
26859;BME280;14429;48.346;16.338;2023-07-09T07:15:08;100258.41;;;30.82;34.99
26859;BME280;14429;48.346;16.338;2023-07-09T07:17:35;100255.06;;;31.47;35.09
26859;BME280;14429;48.346;16.338;2023-07-09T07:20:00;100252.91;;;31.80;34.44
26859;BME280;14429;48.346;16.338;2023-07-09T07:22:26;100254.84;;;32.21;33.43
26859;BME280;14429;48.346;16.338;2023-07-09T07:24:51;100250.22;;;31.73;34.60
26859;BME280;14429;48.346;16.338;2023-07-09T07:27:16;100248.78;;;31.34;34.36
26859;BME280;14429;48.346;16.338;2023-07-09T07:29:42;100254.59;;;30.83;35.10
26859;BME280;14429;48.346;16.338;2023-07-09T07:32:08;100246.88;;;30.48;35.43
26859;BME280;14429;48.346;16.338;2023-07-09T07:34:34;100251.47;;;29.92;36.44
26859;BME280;14429;48.346;16.338;2023-07-09T07:37:00;100248.03;;;29.45;37.58
26859;BME280;14429;48.346;16.338;2023-07-09T07:39:25;100248.66;;;29.22;38.07
26859;BME280;14429;48.346;16.338;2023-07-09T07:41:51;100247.19;;;29.45;38.47
26859;BME280;14429;48.346;16.338;2023-07-09T07:44:16;100249.31;;;29.49;37.80
26859;BME280;14429;48.346;16.338;2023-07-09T07:46:42;100242.53;;;29.45;37.97
26859;BME280;14429;48.346;16.338;2023-07-09T07:49:07;100243.38;;;29.20;37.95
26859;BME280;14429;48.346;16.338;2023-07-09T07:51:34;100243.38;;;29.26;37.93
26859;BME280;14429;48.346;16.338;2023-07-09T07:53:59;100236.75;;;28.96;38.75
26859;BME280;14429;48.346;16.338;2023-07-09T07:56:25;100238.81;;;28.81;39.12
26859;BME280;14429;48.346;16.338;2023-07-09T07:58:50;100235.25;;;28.87;38.56
26859;BME280;14429;48.346;16.338;2023-07-09T08:01:16;100243.25;;;28.75;39.10
26859;BME280;14429;48.346;16.338;2023-07-09T08:03:41;100235.19;;;28.74;38.85
26859;BME280;14429;48.346;16.338;2023-07-09T08:06:06;100238.00;;;28.87;39.52
26859;BME280;14429;48.346;16.338;2023-07-09T08:08:33;100232.69;;;28.79;39.05
26859;BME280;14429;48.346;16.338;2023-07-09T08:11:04;100228.88;;;28.80;38.99
26859;BME280;14429;48.346;16.338;2023-07-09T08:13:30;100233.13;;;28.82;39.06
26859;BME280;14429;48.346;16.338;2023-07-09T08:15:55;100240.31;;;28.90;39.05
26859;BME280;14429;48.346;16.338;2023-07-09T08:18:21;100238.19;;;28.79;39.07
26859;BME280;14429;48.346;16.338;2023-07-09T08:20:46;100234.41;;;28.93;38.79
26859;BME280;14429;48.346;16.338;2023-07-09T08:23:12;100237.56;;;28.90;39.00
26859;BME280;14429;48.346;16.338;2023-07-09T08:25:38;100245.81;;;28.90;39.77
26859;BME280;14429;48.346;16.338;2023-07-09T08:28:04;100247.94;;;28.88;38.86
26859;BME280;14429;48.346;16.338;2023-07-09T08:30:29;100244.72;;;28.78;39.29
26859;BME280;14429;48.346;16.338;2023-07-09T08:32:55;100244.47;;;28.67;39.35
26859;BME280;14429;48.346;16.338;2023-07-09T08:35:20;100236.69;;;28.76;39.49
26859;BME280;14429;48.346;16.338;2023-07-09T08:37:46;100241.09;;;28.71;38.93
26859;BME280;14429;48.346;16.338;2023-07-09T08:40:13;100244.72;;;28.78;39.25
26859;BME280;14429;48.346;16.338;2023-07-09T08:42:43;100238.59;;;28.76;39.24
26859;BME280;14429;48.346;16.338;2023-07-09T08:45:16;100239.44;;;28.76;37.35
26859;BME280;14429;48.346;16.338;2023-07-09T08:47:52;100242.84;;;28.85;38.15
26859;BME280;14429;48.346;16.338;2023-07-09T08:50:22;100239.72;;;28.94;38.92
26859;BME280;14429;48.346;16.338;2023-07-09T08:52:50;100244.31;;;28.81;39.31
26859;BME280;14429;48.346;16.338;2023-07-09T08:55:17;100239.50;;;28.96;39.32
26859;BME280;14429;48.346;16.338;2023-07-09T08:57:47;100243.72;;;28.92;39.29
26859;BME280;14429;48.346;16.338;2023-07-09T09:00:17;100241.19;;;28.97;38.93
26859;BME280;14429;48.346;16.338;2023-07-09T09:02:48;100248.22;;;29.12;38.88
26859;BME280;14429;48.346;16.338;2023-07-09T09:05:18;100247.13;;;28.94;39.35
26859;BME280;14429;48.346;16.338;2023-07-09T09:07:47;100248.31;;;28.72;39.56
26859;BME280;14429;48.346;16.338;2023-07-09T09:10:18;100244.50;;;28.73;39.37
26859;BME280;14429;48.346;16.338;2023-07-09T09:12:56;100236.72;;;28.83;39.21
26859;BME280;14429;48.346;16.338;2023-07-09T09:15:25;100241.19;;;28.90;39.48
26859;BME280;14429;48.346;16.338;2023-07-09T09:17:54;100245.00;;;28.96;39.37
26859;BME280;14429;48.346;16.338;2023-07-09T09:20:22;100244.22;;;29.14;38.55
26859;BME280;14429;48.346;16.338;2023-07-09T09:22:50;100239.59;;;29.27;38.71
26859;BME280;14429;48.346;16.338;2023-07-09T09:25:23;100243.34;;;29.07;38.98
26859;BME280;14429;48.346;16.338;2023-07-09T09:27:52;100237.84;;;29.07;39.10
26859;BME280;14429;48.346;16.338;2023-07-09T09:30:19;100245.22;;;29.00;39.11
26859;BME280;14429;48.346;16.338;2023-07-09T09:32:47;100246.75;;;29.09;39.08
26859;BME280;14429;48.346;16.338;2023-07-09T09:35:15;100237.66;;;29.22;38.32
26859;BME280;14429;48.346;16.338;2023-07-09T09:37:44;100242.94;;;29.10;39.15
26859;BME280;14429;48.346;16.338;2023-07-09T09:40:17;100231.16;;;29.67;35.48
26859;BME280;14429;48.346;16.338;2023-07-09T09:42:42;100238.75;;;29.78;35.51
26859;BME280;14429;48.346;16.338;2023-07-09T09:45:11;100234.94;;;29.79;37.00
26859;BME280;14429;48.346;16.338;2023-07-09T09:47:38;100240.88;;;29.51;37.79
26859;BME280;14429;48.346;16.338;2023-07-09T09:50:04;100238.13;;;29.51;37.88
26859;BME280;14429;48.346;16.338;2023-07-09T09:52:31;100231.16;;;29.67;35.94
26859;BME280;14429;48.346;16.338;2023-07-09T09:55:02;100239.00;;;29.57;36.90
26859;BME280;14429;48.346;16.338;2023-07-09T09:57:28;100232.81;;;29.55;37.65
26859;BME280;14429;48.346;16.338;2023-07-09T09:59:54;100234.28;;;29.26;38.32
26859;BME280;14429;48.346;16.338;2023-07-09T10:02:23;100232.38;;;29.33;38.60
26859;BME280;14429;48.346;16.338;2023-07-09T10:04:49;100222.22;;;29.52;36.57
26859;BME280;14429;48.346;16.338;2023-07-09T10:07:22;100226.88;;;29.26;38.76
26859;BME280;14429;48.346;16.338;2023-07-09T10:09:51;100226.06;;;29.20;38.97
26859;BME280;14429;48.346;16.338;2023-07-09T10:12:29;100219.06;;;29.24;36.64
26859;BME280;14429;48.346;16.338;2023-07-09T10:15:00;100216.75;;;29.78;34.20
26859;BME280;14429;48.346;16.338;2023-07-09T10:17:35;100216.75;;;29.78;37.07
26859;BME280;14429;48.346;16.338;2023-07-09T10:20:07;100216.78;;;29.59;36.85
26859;BME280;14429;48.346;16.338;2023-07-09T10:22:40;100215.94;;;29.58;38.07
26859;BME280;14429;48.346;16.338;2023-07-09T10:25:16;100212.44;;;30.08;33.13
26859;BME280;14429;48.346;16.338;2023-07-09T10:27:56;100212.91;;;29.79;35.15
26859;BME280;14429;48.346;16.338;2023-07-09T10:30:37;100208.00;;;30.07;31.68
26859;BME280;14429;48.346;16.338;2023-07-09T10:33:08;100207.22;;;29.87;37.01
26859;BME280;14429;48.346;16.338;2023-07-09T10:35:38;100200.56;;;30.26;30.68
26859;BME280;14429;48.346;16.338;2023-07-09T10:38:19;100211.81;;;30.18;33.85
26859;BME280;14429;48.346;16.338;2023-07-09T10:40:48;100201.88;;;30.61;29.76
26859;BME280;14429;48.346;16.338;2023-07-09T10:43:19;100202.22;;;30.83;30.08
26859;BME280;14429;48.346;16.338;2023-07-09T10:45:51;100205.16;;;30.45;35.42
26859;BME280;14429;48.346;16.338;2023-07-09T10:48:33;100198.34;;;29.66;37.47
26859;BME280;14429;48.346;16.338;2023-07-09T10:50:59;100195.59;;;29.66;37.07
26859;BME280;14429;48.346;16.338;2023-07-09T10:53:30;100198.53;;;29.77;32.59
26859;BME280;14429;48.346;16.338;2023-07-09T10:56:00;100198.97;;;29.74;37.59
26859;BME280;14429;48.346;16.338;2023-07-09T10:58:33;100190.03;;;30.10;35.48
26859;BME280;14429;48.346;16.338;2023-07-09T11:01:00;100191.47;;;30.26;29.67
26859;BME280;14429;48.346;16.338;2023-07-09T11:03:34;100189.50;;;30.39;31.35
26859;BME280;14429;48.346;16.338;2023-07-09T11:06:01;100183.25;;;30.99;28.36
26859;BME280;14429;48.346;16.338;2023-07-09T11:08:34;100180.66;;;31.04;29.07
26859;BME280;14429;48.346;16.338;2023-07-09T11:11:03;100181.69;;;31.10;28.08
26859;BME280;14429;48.346;16.338;2023-07-09T11:13:35;100173.06;;;31.00;29.54
26859;BME280;14429;48.346;16.338;2023-07-09T11:16:03;100187.13;;;30.42;35.71
26859;BME280;14429;48.346;16.338;2023-07-09T11:18:33;100177.72;;;30.07;36.85
26859;BME280;14429;48.346;16.338;2023-07-09T11:21:00;100173.66;;;30.71;27.99
26859;BME280;14429;48.346;16.338;2023-07-09T11:23:37;100172.69;;;30.90;26.06
26859;BME280;14429;48.346;16.338;2023-07-09T11:26:11;100173.28;;;30.62;30.43
26859;BME280;14429;48.346;16.338;2023-07-09T11:28:39;100181.88;;;30.35;36.46
26859;BME280;14429;48.346;16.338;2023-07-09T11:31:06;100182.25;;;30.51;35.75
26859;BME280;14429;48.346;16.338;2023-07-09T11:33:33;100184.19;;;30.44;35.40
26859;BME280;14429;48.346;16.338;2023-07-09T11:36:07;100178.63;;;29.88;37.48
26859;BME280;14429;48.346;16.338;2023-07-09T11:38:39;100180.06;;;29.97;36.33
26859;BME280;14429;48.346;16.338;2023-07-09T11:41:26;100173.91;;;30.08;35.66
26859;BME280;14429;48.346;16.338;2023-07-09T11:44:04;100167.97;;;30.97;30.11
26859;BME280;14429;48.346;16.338;2023-07-09T11:46:30;100167.81;;;31.22;26.01
26859;BME280;14429;48.346;16.338;2023-07-09T11:48:58;100163.06;;;30.68;34.74
26859;BME280;14429;48.346;16.338;2023-07-09T11:51:34;100170.84;;;30.84;27.36
26859;BME280;14429;48.346;16.338;2023-07-09T11:54:02;100166.16;;;31.15;26.23
26859;BME280;14429;48.346;16.338;2023-07-09T11:56:28;100164.16;;;30.98;25.12
26859;BME280;14429;48.346;16.338;2023-07-09T11:58:55;100161.06;;;31.12;24.03
26859;BME280;14429;48.346;16.338;2023-07-09T12:01:23;100149.19;;;31.42;22.96
26859;BME280;14429;48.346;16.338;2023-07-09T12:03:50;100155.97;;;31.64;23.56
26859;BME280;14429;48.346;16.338;2023-07-09T12:06:20;100157.81;;;31.52;26.98
26859;BME280;14429;48.346;16.338;2023-07-09T12:08:48;100152.25;;;31.04;28.40
26859;BME280;14429;48.346;16.338;2023-07-09T12:11:22;100146.75;;;31.52;23.48
26859;BME280;14429;48.346;16.338;2023-07-09T12:13:48;100141.28;;;31.45;24.65
26859;BME280;14429;48.346;16.338;2023-07-09T12:16:25;100142.34;;;31.69;22.88
26859;BME280;14429;48.346;16.338;2023-07-09T12:18:51;100139.31;;;31.94;22.92
26859;BME280;14429;48.346;16.338;2023-07-09T12:21:18;100138.84;;;31.79;29.08
26859;BME280;14429;48.346;16.338;2023-07-09T12:23:43;100134.72;;;31.88;24.68
26859;BME280;14429;48.346;16.338;2023-07-09T12:26:13;100133.56;;;31.54;29.10
26859;BME280;14429;48.346;16.338;2023-07-09T12:28:39;100119.69;;;31.84;24.63
26859;BME280;14429;48.346;16.338;2023-07-09T12:31:04;100116.03;;;32.26;23.80
26859;BME280;14429;48.346;16.338;2023-07-09T12:33:35;100117.06;;;31.89;26.37
26859;BME280;14429;48.346;16.338;2023-07-09T12:36:04;100112.03;;;31.20;32.34
26859;BME280;14429;48.346;16.338;2023-07-09T12:38:38;100120.28;;;30.60;34.50
26859;BME280;14429;48.346;16.338;2023-07-09T12:41:06;100118.59;;;30.95;33.02